Terminal Aerodrome Forecast
Issued by NWS

Home | Current Version | Previous Version | Text Only | Print | Product List | Glossary On
Versions: 1 2 3 4 5 6 7 8 9 10 11 12 13 14 15 16 17 18 19 20 21 22 23
000
FTUS43 KDLH 252357 AAA
TAFBRD
TAF AMD
KBRD 252357Z 2600/2624 28006KT P6SM SKC
     FM260800 VRB06KT P6SM BKN100 WS020/26040KT
     FM261600 25010KT P6SM VCSH FEW040 BKN090=

USA.gov is the U.S. government's official web portal to all federal, state and local government web resources and services.